Terminal Aerodrome Forecast
Issued by NWS Springfield, MO

Home | Current Version | Previous Version | Text Only | Print | Product List | Glossary On
Versions: 1 2 3 4 5 6 7 8 9 10 11 12 13 14 15 16 17 18 19
000
FTUS43 KSGF 250500
TAFSGF
TAF
KSGF 250520Z 2506/2606 15014G22KT P6SM BKN008 OVC200 WS020/21045KT
     FM250900 16014G22KT P6SM VCSH BKN008 OVC050 WS020/21045KT
     FM251200 20012KT P6SM BKN015 OVC100
     FM251500 24015G24KT P6SM SCT050
     FM251900 27017G28KT P6SM FEW050
     FM260000 31010KT P6SM SKC=

USA.gov is the U.S. government's official web portal to all federal, state and local government web resources and services.